Weather - Helsinki Query any day in the database

Current weather  

Weather data for a selected day (2006-01-01 -2020-10-31)
Enter date:     <-     scroll days         ->
day curves
Low temperature°C -15.409:00
High temperature°C -4.815:00
Low wind chill°C -2009:00
Average temperature°C -11.0 
High wind speed (10 min) m/s 4.620:30
Low pressurehPa 1046.523:30
High pressurehPa 1049.304:00
Low R.H% 3415:00
High R.H% 8604:00
Day weather data as a table
Date Time Temp
°C
Chill
°C
Pressure
hPA
Wind
m/s
Hum
%
Precip
mm
2017-02-08 23:30:00 -12.1  -17.2  1046.5 2.4 71 -
2017-02-08 23:00:00 -11.9  -16.8  1046.5 2.3 69 -
2017-02-08 22:30:00 -11.7  -17.7  1046.6 3.1 68 -
2017-02-08 22:00:00 -11.5  -17.2  1046.7 2.9 67 -
2017-02-08 21:30:00 -10.9  -16.6  1046.7 3.0 63 -
2017-02-08 21:00:00 -10.4  -17.2  1046.6 4.1 61 -
2017-02-08 20:30:00 -10.0  -17.1  1046.8 4.6 60 -
2017-02-08 20:00:00 -9.7  -16.5  1046.8 4.3 58 -
2017-02-08 19:30:00 -9.5  -16.2  1047.1 4.2 57 -
2017-02-08 19:00:00 -9.0  -15.1  1047.1 3.7 54 -
2017-02-08 18:30:00 -9.5  -15.6  1047.2 3.6 56 -
2017-02-08 18:00:00 -9.3  -15.1  1047.3 3.4 54 -
2017-02-08 17:30:00 -8.2  -13.0  1047.2 2.7 48 -
2017-02-08 17:00:00 -7.3  -11.9  1047.3 2.7 44 -
2017-02-08 16:30:00 -6.2  -11.1  1047.2 3.1 42 -
2017-02-08 16:00:00 -5.7  -10.9  1047.4 3.5 40 -
2017-02-08 15:30:00 -5.2  -10.6  1047.5 3.9 37 -
2017-02-08 15:00:00 -4.8  -10.1  1047.6 3.9 34 -
2017-02-08 14:30:00 -5.1  -10.0  1047.9 3.4 37 -
2017-02-08 14:00:00 -5.2  -9.7  1048.1 2.9 39 -
2017-02-08 13:30:00 -5.5  -9.6  1048.2 2.5 40 -
2017-02-08 13:00:00 -5.9  -9.9  1048.2 2.4 40 -
2017-02-08 12:30:00 -7.6  -10.4  1048.5 1.5 54 -
2017-02-08 12:00:00 -8.9  -13.2  1048.6 2.2 58 -
2017-02-08 11:30:00 -10.0  -13.2  1048.7 1.5 61 -
2017-02-08 11:00:00 -10.5  -14.0  1048.8 1.6 62 -
2017-02-08 10:30:00 -11.7  -16.8  1048.8 2.4 64 -
2017-02-08 10:00:00 -12.4  -18.2  1048.9 2.8 69 -
2017-02-08 09:30:00 -14.4  -17.7  1049.0 1.3 80 -
2017-02-08 09:00:00 -15.4  -20.0  1049.1 1.8 83 -
2017-02-08 08:30:00 -15.0  -19.6  1049.0 1.8 80 -
2017-02-08 08:00:00 -14.7  -19.8  1049.0 2.1 84 -
2017-02-08 07:30:00 -14.2  -19.0  1049.0 2.0 81 -
2017-02-08 07:00:00 -14.1  -19.4  1049.1 2.3 83 -
2017-02-08 06:30:00 -13.7  -19.7  1049.0 2.8 82 -
2017-02-08 06:00:00 -13.5  -17.6  1049.0 1.7 83 -
2017-02-08 05:30:00 -13.5  -19.7  1048.9 3.0 84 -
2017-02-08 05:00:00 -13.2  -17.5  1049.1 1.8 85 -
2017-02-08 04:30:00 -13.4  -19.4  1049.2 2.8 85 -
2017-02-08 04:00:00 -13.9  -19.2  1049.3 2.3 86 -
2017-02-08 03:30:00 -14.0  -19.0  1049.3 2.1 86 -
2017-02-08 03:00:00 -14.0  -18.2  1049.2 1.7 86 -
2017-02-08 02:30:00 -14.2  -19.0  1049.3 2.0 85 -
2017-02-08 02:00:00 -14.0  -18.4  1049.3 1.8 86 -
2017-02-08 01:30:00 -14.6  -18.9  1049.3 1.7 86 -
2017-02-08 01:00:00 -14.7  -16.8  1049.1 0.9 85 -
2017-02-08 00:30:00 -14.2  -18.6  1049.1 1.8 85 -
2017-02-08 00:00:00 -14.1  -19.7  1048.9 2.5 85 -
Unit conversions: